Time;durP1;ratioP1;P1;durP2;ratioP2;P2;SDS_P1;SDS_P2;PMS_P1;PMS_P2;Temp;Humidity;BMP_temperature;BMP_pressure;BME280_temperature;BME280_humidity;BME280_pressure;Samples;Min_cycle;Max_cycle;Signal;HPM_P1;HPM_P2
2022/03/05 00:01:19;;;;;;;5.70;2.77;;;-0.30;99.90;;;;;;5102435;28;20221;-42
2022/03/05 00:03:47;;;;;;;5.97;2.47;;;-0.30;99.90;;;;;;5102073;28;20197;-46
2022/03/05 00:06:13;;;;;;;4.10;2.70;;;-0.30;99.90;;;;;;5101659;28;20189;-43
2022/03/05 00:08:41;;;;;;;5.30;2.70;;;-0.30;99.90;;;;;;5103135;28;20685;-42
2022/03/05 00:11:08;;;;;;;5.13;2.83;;;-0.40;99.90;;;;;;5100975;28;20224;-42
2022/03/05 00:13:36;;;;;;;3.43;2.30;;;-0.40;99.90;;;;;;5077267;27;20227;-45
2022/03/05 00:16:04;;;;;;;5.27;2.30;;;-0.40;99.90;;;;;;5106861;27;20226;-45
2022/03/05 00:18:32;;;;;;;5.20;2.27;;;-0.40;99.90;;;;;;5099699;28;20210;-42
2022/03/05 00:20:58;;;;;;;3.63;2.20;;;-0.40;99.90;;;;;;5103732;28;20226;-44
2022/03/05 00:23:25;;;;;;;2.30;2.10;;;-0.50;99.90;;;;;;5100584;28;20689;-41
2022/03/05 00:25:52;;;;;;;3.83;2.10;;;-0.50;99.90;;;;;;5102554;28;20696;-45
2022/03/05 00:28:19;;;;;;;3.00;2.20;;;-0.50;99.90;;;;;;5101949;28;20221;-43
2022/03/05 00:30:46;;;;;;;3.00;2.30;;;-0.50;99.90;;;;;;5086886;28;20212;-42
2022/03/05 00:33:13;;;;;;;6.20;1.93;;;-0.50;99.90;;;;;;5103110;28;20216;-45
2022/03/05 00:35:41;;;;;;;3.57;2.20;;;-0.50;99.90;;;;;;5100194;27;20221;-43
2022/03/05 00:38:08;;;;;;;4.17;2.43;;;-0.60;99.90;;;;;;5102331;28;20201;-47
2022/03/05 00:40:35;;;;;;;2.40;1.90;;;-0.60;99.90;;;;;;5099089;28;20189;-45
2022/03/05 00:43:02;;;;;;;2.90;1.90;;;-0.60;99.90;;;;;;5103803;28;20750;-45
2022/03/05 00:45:28;;;;;;;4.90;2.30;;;-0.60;99.90;;;;;;5088742;28;20205;-45
2022/03/05 00:47:55;;;;;;;3.63;2.10;;;-0.70;99.90;;;;;;5102061;28;20199;-49
2022/03/05 00:50:23;;;;;;;4.10;2.47;;;-0.70;99.90;;;;;;5094525;28;20311;-44
2022/03/05 00:52:51;;;;;;;4.50;2.13;;;-0.60;99.90;;;;;;5093975;28;20342;-43
2022/03/05 00:55:19;;;;;;;5.20;2.27;;;-0.60;99.90;;;;;;5095700;28;20208;-44
2022/03/05 00:57:46;;;;;;;4.10;2.37;;;-0.70;99.90;;;;;;5101119;28;20189;-44
2022/03/05 01:00:13;;;;;;;3.60;1.90;;;-0.70;99.90;;;;;;5103001;28;20213;-44
2022/03/05 01:02:41;;;;;;;4.17;2.23;;;-0.70;99.90;;;;;;5079999;28;20845;-43
2022/03/05 01:05:09;;;;;;;3.50;2.10;;;-0.70;99.90;;;;;;5096592;28;20623;-47
2022/03/05 01:07:36;;;;;;;5.23;2.17;;;-0.70;99.90;;;;;;5093349;28;20188;-45
2022/03/05 01:10:05;;;;;;;2.77;1.90;;;-0.70;99.90;;;;;;5103212;28;20198;-43
2022/03/05 01:12:32;;;;;;;2.63;1.83;;;-0.80;99.90;;;;;;5098241;28;20218;-42
2022/03/05 01:14:59;;;;;;;4.43;1.80;;;-0.80;99.90;;;;;;5102841;28;20552;-48
2022/03/05 01:17:26;;;;;;;3.50;1.90;;;-0.80;99.90;;;;;;5090982;28;20199;-43
2022/03/05 01:19:53;;;;;;;4.17;2.00;;;-0.80;99.90;;;;;;5099325;28;20620;-44
2022/03/05 01:22:20;;;;;;;3.73;2.53;;;-0.90;99.90;;;;;;5101397;28;20220;-42
2022/03/05 01:24:47;;;;;;;6.30;2.13;;;-0.80;99.90;;;;;;5100818;28;20193;-44
2022/03/05 01:27:15;;;;;;;3.73;2.10;;;-0.90;99.90;;;;;;5095769;28;20197;-42
2022/03/05 01:29:42;;;;;;;5.30;2.17;;;-0.90;99.90;;;;;;5093262;28;20296;-42
2022/03/05 01:32:09;;;;;;;2.07;1.80;;;-0.90;99.90;;;;;;5102962;28;20226;-42
2022/03/05 01:34:36;;;;;;;4.17;1.53;;;-0.90;99.90;;;;;;5085753;28;20297;-45
2022/03/05 01:37:04;;;;;;;2.37;1.60;;;-0.90;99.90;;;;;;5096241;28;20197;-48
2022/03/05 01:39:31;;;;;;;3.83;1.70;;;-0.90;99.90;;;;;;5094785;28;20208;-47
2022/03/05 01:41:57;;;;;;;2.90;1.77;;;-0.90;99.90;;;;;;5102618;28;20224;-47
2022/03/05 01:44:26;;;;;;;3.97;1.70;;;-0.90;99.90;;;;;;5093323;28;20547;-44
2022/03/05 01:46:53;;;;;;;2.33;1.70;;;-0.90;99.90;;;;;;5095246;28;20230;-45
2022/03/05 01:49:20;;;;;;;3.50;1.63;;;-0.90;99.90;;;;;;5081672;28;20570;-42
2022/03/05 01:51:48;;;;;;;3.27;1.87;;;-0.90;99.90;;;;;;5098589;28;20221;-48
2022/03/05 01:54:15;;;;;;;2.23;1.53;;;-0.90;99.90;;;;;;5095682;28;20301;-46
2022/03/05 01:56:43;;;;;;;4.87;1.70;;;-0.90;99.90;;;;;;5092596;28;20210;-47
2022/03/05 01:59:11;;;;;;;2.63;1.50;;;-0.90;99.90;;;;;;5096018;28;20194;-45
2022/03/05 02:01:39;;;;;;;3.67;1.80;;;-1.00;99.90;;;;;;5092301;28;20516;-43
2022/03/05 02:04:07;;;;;;;4.00;1.50;;;-1.00;99.90;;;;;;5102701;28;20197;-44
2022/03/05 02:06:34;;;;;;;2.80;1.70;;;-1.00;99.90;;;;;;5088493;28;20201;-45
2022/03/05 02:09:01;;;;;;;4.30;1.60;;;-1.00;99.90;;;;;;5105593;28;20205;-42
2022/03/05 02:11:29;;;;;;;2.03;1.33;;;-1.00;99.90;;;;;;5102971;28;20213;-44
2022/03/05 02:13:56;;;;;;;1.83;1.63;;;-1.00;99.90;;;;;;5106006;28;20563;-49
2022/03/05 02:16:23;;;;;;;2.87;1.90;;;-1.00;99.90;;;;;;5103940;28;20561;-41
2022/03/05 02:18:55;;;;;;;1.87;1.60;;;-1.00;99.90;;;;;;5098368;28;20216;-44
2022/03/05 02:21:23;;;;;;;2.83;1.70;;;-1.00;99.90;;;;;;5091137;28;20583;-44
2022/03/05 02:23:50;;;;;;;1.60;1.40;;;-1.00;99.90;;;;;;5104229;28;20267;-44
2022/03/05 02:26:17;;;;;;;3.07;1.70;;;-1.10;99.90;;;;;;5102732;28;20212;-42
2022/03/05 02:28:44;;;;;;;4.07;1.80;;;-1.10;99.90;;;;;;5106973;27;20189;-41
2022/03/05 02:31:11;;;;;;;1.67;1.43;;;-1.10;99.90;;;;;;5105871;28;20224;-50
2022/03/05 02:33:37;;;;;;;4.10;1.50;;;-1.10;99.90;;;;;;5101360;28;20223;-44
2022/03/05 02:36:05;;;;;;;5.17;1.93;;;-1.10;99.90;;;;;;5092647;28;20209;-44
2022/03/05 02:38:34;;;;;;;2.40;1.37;;;-1.10;99.90;;;;;;5101121;27;20616;-42
2022/03/05 02:41:01;;;;;;;5.13;1.47;;;-1.20;99.90;;;;;;5105670;28;20222;-44
2022/03/05 02:43:27;;;;;;;4.20;1.50;;;-1.20;99.90;;;;;;5102581;28;20208;-44
2022/03/05 02:45:55;;;;;;;3.13;1.73;;;-1.20;99.90;;;;;;5105078;28;20661;-45
2022/03/05 02:48:22;;;;;;;4.20;1.53;;;-1.20;99.90;;;;;;5103431;27;20197;-46
2022/03/05 02:50:50;;;;;;;3.13;1.37;;;-1.30;99.90;;;;;;5103859;28;20204;-43
2022/03/05 02:53:18;;;;;;;3.20;1.60;;;-1.30;99.90;;;;;;5090852;28;20271;-45
2022/03/05 02:55:46;;;;;;;5.70;1.77;;;-1.30;99.90;;;;;;5102690;28;20223;-44
2022/03/05 02:58:13;;;;;;;3.57;1.70;;;-1.30;99.90;;;;;;5105477;28;20274;-48
2022/03/05 03:00:40;;;;;;;1.63;1.50;;;-1.30;99.90;;;;;;5101819;28;20189;-45
2022/03/05 03:03:07;;;;;;;3.47;1.63;;;-1.30;99.90;;;;;;5105330;28;20669;-43
2022/03/05 03:05:34;;;;;;;2.53;1.47;;;-1.30;99.90;;;;;;5101693;28;20277;-44
2022/03/05 03:08:01;;;;;;;2.87;1.53;;;-1.30;99.90;;;;;;5088030;28;20201;-45
2022/03/05 03:10:28;;;;;;;2.07;1.37;;;-1.40;99.90;;;;;;5102150;28;20197;-44
2022/03/05 03:12:57;;;;;;;1.27;1.17;;;-1.40;99.90;;;;;;5104950;28;20304;-46
2022/03/05 03:15:25;;;;;;;2.30;1.37;;;-1.30;99.90;;;;;;5102199;28;20220;-46
2022/03/05 03:17:52;;;;;;;4.53;1.53;;;-1.30;99.90;;;;;;5103017;28;20209;-44
2022/03/05 03:20:22;;;;;;;2.23;1.40;;;-1.30;99.90;;;;;;5103689;28;20233;-47
2022/03/05 03:22:49;;;;;;;3.60;1.47;;;-1.40;99.90;;;;;;5103574;28;20215;-47
2022/03/05 03:25:16;;;;;;;2.57;1.37;;;-1.40;99.90;;;;;;5090744;28;20201;-43
2022/03/05 03:27:43;;;;;;;5.70;1.77;;;-1.40;99.90;;;;;;5102048;28;20191;-44
2022/03/05 03:30:13;;;;;;;3.23;1.67;;;-1.40;99.90;;;;;;5104682;28;20194;-48
2022/03/05 03:32:41;;;;;;;4.40;1.37;;;-1.40;99.90;;;;;;5101586;28;20457;-44
2022/03/05 03:35:09;;;;;;;1.70;1.60;;;-1.40;99.90;;;;;;5104924;28;20217;-42
2022/03/05 03:37:37;;;;;;;3.70;1.67;;;-1.40;99.90;;;;;;5099654;28;20189;-42
2022/03/05 03:40:06;;;;;;;2.33;1.70;;;-1.40;99.90;;;;;;5090888;28;20201;-43
2022/03/05 03:42:34;;;;;;;5.20;1.43;;;-1.30;99.90;;;;;;5100324;28;20293;-45
2022/03/05 03:45:02;;;;;;;2.70;1.50;;;-1.40;99.90;;;;;;5104548;28;20203;-45
2022/03/05 03:47:29;;;;;;;3.60;1.90;;;-1.40;99.90;;;;;;5100979;28;20201;-43
2022/03/05 03:49:57;;;;;;;1.90;1.57;;;-1.40;99.90;;;;;;5104385;27;20196;-47
2022/03/05 03:52:23;;;;;;;2.53;1.73;;;-1.40;99.90;;;;;;5102171;28;20690;-42
2022/03/05 03:54:52;;;;;;;1.70;1.30;;;-1.40;99.90;;;;;;5089946;28;20224;-48
2022/03/05 03:57:18;;;;;;;3.47;1.30;;;-1.40;99.90;;;;;;5102580;28;20697;-42
2022/03/05 03:59:47;;;;;;;2.07;1.40;;;-1.40;99.90;;;;;;5092261;28;20201;-43
2022/03/05 04:02:14;;;;;;;3.50;1.40;;;-1.40;99.90;;;;;;5103956;28;20234;-42
2022/03/05 04:04:42;;;;;;;4.20;1.30;;;-1.40;99.90;;;;;;5092907;28;20193;-42
2022/03/05 04:09:54;;;;;;;3.53;1.30;;;-1.40;99.90;;;;;;5090950;28;20201;-46
2022/03/05 04:12:21;;;;;;;3.53;1.80;;;-1.40;99.90;;;;;;5101969;28;20217;-45
2022/03/05 04:14:48;;;;;;;3.77;1.53;;;-1.40;99.90;;;;;;5102031;28;20221;-43
2022/03/05 04:17:15;;;;;;;7.67;1.80;;;-1.40;99.90;;;;;;5102948;28;20204;-47
2022/03/05 04:19:44;;;;;;;3.20;1.43;;;-1.40;99.90;;;;;;5092014;28;20221;-45
2022/03/05 04:22:12;;;;;;;1.97;1.53;;;-1.50;99.90;;;;;;5101678;28;20223;-46
2022/03/05 04:24:39;;;;;;;4.73;1.77;;;-1.50;99.90;;;;;;5100183;28;20228;-45
2022/03/05 04:27:07;;;;;;;3.77;1.43;;;-1.50;99.90;;;;;;5090316;28;20204;-43
2022/03/05 04:29:34;;;;;;;2.37;1.60;;;-1.50;99.90;;;;;;5099240;28;20193;-46
2022/03/05 04:32:01;;;;;;;2.77;1.67;;;-1.50;99.90;;;;;;5103357;27;20213;-45
2022/03/05 04:34:28;;;;;;;5.83;1.93;;;-1.50;99.90;;;;;;5100309;28;20600;-43
2022/03/05 04:36:56;;;;;;;2.07;1.40;;;-1.60;99.90;;;;;;5102310;28;20641;-45
2022/03/05 04:39:23;;;;;;;3.27;1.23;;;-1.60;99.90;;;;;;5087332;28;20209;-44
2022/03/05 04:41:50;;;;;;;4.03;1.40;;;-1.60;99.90;;;;;;5087723;27;20217;-44
2022/03/05 04:44:17;;;;;;;1.90;1.50;;;-1.60;99.90;;;;;;5103141;27;20178;-44
2022/03/05 04:46:44;;;;;;;3.53;1.40;;;-1.60;99.90;;;;;;5102376;28;20375;-46
2022/03/05 04:49:10;;;;;;;3.37;1.53;;;-1.60;99.90;;;;;;5099752;28;20796;-43
2022/03/05 04:51:37;;;;;;;4.80;1.57;;;-1.70;99.90;;;;;;5103100;28;20576;-47
2022/03/05 04:54:05;;;;;;;5.40;1.63;;;-1.70;99.90;;;;;;5099166;28;20193;-45
2022/03/05 04:56:32;;;;;;;3.57;1.90;;;-1.70;99.90;;;;;;5102973;28;20250;-44
2022/03/05 04:58:59;;;;;;;5.47;1.80;;;-1.70;99.90;;;;;;5086222;28;20228;-41
2022/03/05 05:01:26;;;;;;;4.73;1.57;;;-1.70;99.90;;;;;;5090582;28;20229;-43
2022/03/05 05:03:53;;;;;;;3.53;1.80;;;-1.70;99.90;;;;;;5108076;27;20200;-43
2022/03/05 05:06:20;;;;;;;8.47;2.00;;;-1.70;99.90;;;;;;5103027;28;20261;-43
2022/03/05 05:08:47;;;;;;;2.97;1.60;;;-1.70;99.90;;;;;;5095277;28;20307;-43
2022/03/05 05:11:16;;;;;;;4.47;1.70;;;-1.70;99.90;;;;;;5100712;28;20209;-44
2022/03/05 05:13:42;;;;;;;2.97;1.90;;;-1.70;99.90;;;;;;5089279;28;20205;-46
2022/03/05 05:16:09;;;;;;;2.30;1.43;;;-1.70;99.90;;;;;;5092502;28;20784;-42
2022/03/05 05:18:36;;;;;;;3.40;1.50;;;-1.70;99.90;;;;;;5112911;28;20220;-43
2022/03/05 05:21:04;;;;;;;1.60;1.37;;;-1.70;99.90;;;;;;5099319;28;20291;-43
2022/03/05 05:23:31;;;;;;;2.60;1.47;;;-1.70;99.90;;;;;;5103173;28;20198;-42
2022/03/05 05:25:59;;;;;;;4.37;2.10;;;-1.70;99.90;;;;;;5098814;28;20212;-45
2022/03/05 05:28:27;;;;;;;4.47;1.70;;;-1.70;99.90;;;;;;5088781;28;20284;-44
2022/03/05 05:30:54;;;;;;;4.40;1.83;;;-1.70;99.90;;;;;;5089204;28;20334;-44
2022/03/05 05:33:21;;;;;;;1.63;1.23;;;-1.70;99.90;;;;;;5102214;28;20209;-41
2022/03/05 05:35:47;;;;;;;3.17;1.50;;;-1.70;99.90;;;;;;5100555;28;20217;-43
2022/03/05 05:38:14;;;;;;;4.13;1.93;;;-1.70;99.90;;;;;;5096941;28;20254;-42
2022/03/05 05:40:41;;;;;;;3.07;1.67;;;-1.80;99.90;;;;;;5110640;27;20236;-43
2022/03/05 05:43:08;;;;;;;3.43;1.57;;;-1.80;99.90;;;;;;5106992;27;20906;-46
2022/03/05 05:45:36;;;;;;;4.93;1.60;;;-1.80;99.90;;;;;;5083030;28;20201;-43
2022/03/05 05:48:03;;;;;;;2.80;1.67;;;-1.80;99.90;;;;;;5106086;27;20205;-41
2022/03/05 05:50:30;;;;;;;2.63;1.50;;;-1.90;99.90;;;;;;5111931;27;20268;-43
2022/03/05 05:52:57;;;;;;;3.80;1.70;;;-1.90;99.90;;;;;;5100925;27;20256;-41
2022/03/05 05:55:24;;;;;;;5.93;2.53;;;-1.90;99.90;;;;;;5106558;27;20376;-45
2022/03/05 05:57:50;;;;;;;1.83;1.67;;;-1.90;99.90;;;;;;5108773;27;20246;-44
2022/03/05 06:00:18;;;;;;;4.07;1.87;;;-1.90;99.90;;;;;;5100347;27;20220;-41
2022/03/05 06:02:46;;;;;;;3.60;2.00;;;-1.90;99.90;;;;;;5103791;27;20299;-42
2022/03/05 06:05:13;;;;;;;2.97;1.70;;;-1.90;99.90;;;;;;5094372;27;20513;-44
2022/03/05 06:07:39;;;;;;;5.57;1.70;;;-2.00;99.90;;;;;;5092314;27;20744;-42
2022/03/05 06:10:09;;;;;;;5.00;1.80;;;-1.90;99.90;;;;;;5092605;27;20201;-44
2022/03/05 06:12:36;;;;;;;4.17;1.83;;;-2.00;99.90;;;;;;5098931;28;20237;-41
2022/03/05 06:15:03;;;;;;;4.57;2.20;;;-1.90;99.90;;;;;;5092755;28;20224;-41
2022/03/05 06:17:30;;;;;;;5.17;1.83;;;-1.90;99.90;;;;;;5094677;28;20197;-43
2022/03/05 06:19:58;;;;;;;2.80;1.50;;;-1.90;99.90;;;;;;5103716;28;20705;-41
2022/03/05 06:22:25;;;;;;;6.30;1.90;;;-2.00;99.90;;;;;;5091213;28;20240;-40
2022/03/05 06:24:51;;;;;;;3.77;2.07;;;-2.00;99.90;;;;;;5087949;28;20408;-40
2022/03/05 06:27:18;;;;;;;5.13;1.90;;;-1.90;99.90;;;;;;5102252;28;20536;-42
2022/03/05 06:29:45;;;;;;;3.73;1.73;;;-1.90;99.90;;;;;;5101268;27;20185;-42
2022/03/05 06:32:12;;;;;;;4.50;2.03;;;-1.90;99.90;;;;;;5087745;27;20216;-45
2022/03/05 06:34:39;;;;;;;3.17;1.90;;;-1.90;99.90;;;;;;5100077;27;20205;-41
2022/03/05 06:37:07;;;;;;;2.57;1.90;;;-1.80;99.90;;;;;;5103663;27;20224;-43
2022/03/05 06:39:34;;;;;;;5.80;2.07;;;-1.80;99.90;;;;;;5100597;27;20208;-48
2022/03/05 06:42:02;;;;;;;4.53;2.43;;;-1.80;99.90;;;;;;5107326;27;20213;-44
2022/03/05 06:44:28;;;;;;;5.87;1.90;;;-1.80;99.90;;;;;;5113852;27;20215;-45
2022/03/05 06:46:55;;;;;;;2.80;2.03;;;-1.80;99.90;;;;;;5078142;27;20218;-43
2022/03/05 06:49:22;;;;;;;3.20;1.80;;;-1.80;99.90;;;;;;5109893;27;20202;-42
2022/03/05 06:51:49;;;;;;;2.70;1.77;;;-1.80;99.90;;;;;;5095824;28;20209;-41
2022/03/05 06:54:17;;;;;;;2.43;2.20;;;-1.80;99.90;;;;;;5100041;28;20200;-49
2022/03/05 06:56:44;;;;;;;2.70;1.60;;;-1.80;99.90;;;;;;5099068;27;20217;-41
2022/03/05 06:59:11;;;;;;;4.87;1.97;;;-1.80;99.90;;;;;;5113273;27;20197;-43
2022/03/05 07:01:38;;;;;;;6.57;2.47;;;-1.70;99.90;;;;;;5087333;28;20221;-42
2022/03/05 07:04:05;;;;;;;1.80;1.70;;;-1.70;99.90;;;;;;5102216;28;20214;-43
2022/03/05 07:06:32;;;;;;;6.50;2.07;;;-1.70;99.90;;;;;;5095994;27;20189;-42
2022/03/05 07:08:59;;;;;;;2.37;2.17;;;-1.60;99.90;;;;;;5099915;27;20719;-44
2022/03/05 07:11:27;;;;;;;6.10;2.10;;;-1.50;99.90;;;;;;5104974;28;20256;-46
2022/03/05 07:13:54;;;;;;;6.40;2.20;;;-1.50;99.90;;;;;;5101910;27;20199;-46
2022/03/05 07:16:20;;;;;;;3.83;2.20;;;-1.50;99.90;;;;;;5100118;27;20696;-42
2022/03/05 07:18:48;;;;;;;4.83;2.37;;;-1.40;99.90;;;;;;5080113;27;20211;-41
2022/03/05 07:21:15;;;;;;;3.77;1.77;;;-1.40;99.90;;;;;;5105087;28;20296;-41
2022/03/05 07:23:42;;;;;;;4.00;2.20;;;-1.30;99.90;;;;;;5091366;27;20201;-41
2022/03/05 07:26:08;;;;;;;2.83;2.10;;;-1.20;99.90;;;;;;5108463;27;20204;-44
2022/03/05 07:28:36;;;;;;;2.60;2.03;;;-1.10;99.90;;;;;;5102888;27;20657;-42
2022/03/05 07:31:03;;;;;;;3.50;1.97;;;-1.00;99.90;;;;;;5101402;28;20201;-47
2022/03/05 07:33:30;;;;;;;4.27;2.20;;;-0.80;99.90;;;;;;5085325;28;20201;-43
2022/03/05 07:35:58;;;;;;;4.23;2.37;;;-0.80;99.90;;;;;;5102151;28;20955;-42
2022/03/05 07:38:25;;;;;;;6.97;2.40;;;-0.60;99.90;;;;;;5097950;28;20686;-41
2022/03/05 07:40:52;;;;;;;7.33;2.57;;;-0.50;99.90;;;;;;5094315;27;20916;-41
2022/03/05 07:43:18;;;;;;;4.30;2.30;;;-0.40;99.90;;;;;;5103812;28;20243;-42
2022/03/05 07:45:46;;;;;;;6.77;2.80;;;-0.30;99.90;;;;;;5099605;28;20196;-41
2022/03/05 07:48:14;;;;;;;5.70;3.13;;;-0.20;99.90;;;;;;5096461;27;20213;-41
2022/03/05 07:50:42;;;;;;;4.67;2.10;;;-0.10;99.90;;;;;;5087555;28;20206;-43
2022/03/05 07:53:09;;;;;;;6.07;2.50;;;0.00;99.90;;;;;;5094492;28;20202;-41
2022/03/05 07:55:36;;;;;;;5.87;3.07;;;0.10;99.90;;;;;;5094682;28;20213;-42
2022/03/05 07:58:03;;;;;;;3.47;2.50;;;0.20;99.90;;;;;;5103051;28;20551;-42
2022/03/05 08:00:29;;;;;;;9.83;2.90;;;0.30;99.90;;;;;;5103085;28;20284;-46
2022/03/05 08:02:58;;;;;;;4.90;3.10;;;0.50;99.90;;;;;;5093350;28;20225;-41
2022/03/05 08:05:25;;;;;;;4.27;2.70;;;0.60;99.90;;;;;;5091118;28;20251;-42
2022/03/05 08:07:54;;;;;;;6.77;2.97;;;0.60;99.90;;;;;;5094481;27;20214;-41
2022/03/05 08:10:21;;;;;;;2.83;2.60;;;0.70;99.90;;;;;;5097445;28;20552;-42
2022/03/05 08:12:48;;;;;;;4.03;2.87;;;0.70;99.90;;;;;;5099942;28;20939;-46
2022/03/05 08:15:16;;;;;;;5.57;3.13;;;0.70;99.90;;;;;;5096096;28;20213;-41
2022/03/05 08:17:50;;;;;;;9.30;3.50;;;0.80;99.90;;;;;;5093691;28;20201;-43
2022/03/05 08:20:18;;;;;;;6.67;3.27;;;0.90;99.90;;;;;;5078721;28;20286;-44
2022/03/05 08:22:45;;;;;;;6.27;3.87;;;0.90;99.90;;;;;;5097627;28;20239;-43
2022/03/05 08:25:12;;;;;;;6.50;3.07;;;1.00;99.90;;;;;;5096884;28;20197;-44
2022/03/05 08:27:39;;;;;;;7.07;3.07;;;1.20;99.90;;;;;;5098331;28;20194;-43
2022/03/05 08:30:08;;;;;;;3.80;3.37;;;1.20;99.90;;;;;;5101663;28;20206;-45
2022/03/05 08:32:35;;;;;;;5.30;3.37;;;1.40;99.90;;;;;;5102078;27;20220;-43
2022/03/05 08:35:03;;;;;;;8.20;3.33;;;1.50;99.90;;;;;;5098429;28;20224;-42
2022/03/05 08:37:32;;;;;;;4.27;3.40;;;1.70;99.90;;;;;;5087266;27;20938;-42
2022/03/05 08:39:59;;;;;;;10.03;3.40;;;1.80;99.90;;;;;;5103483;28;20207;-42
2022/03/05 08:42:26;;;;;;;8.27;3.90;;;1.90;99.90;;;;;;5092214;28;20219;-44
2022/03/05 08:44:53;;;;;;;6.37;3.90;;;2.00;99.90;;;;;;5103401;28;20567;-46
2022/03/05 08:47:20;;;;;;;5.23;3.73;;;2.20;99.90;;;;;;5099991;28;20203;-45
2022/03/05 08:49:46;;;;;;;5.47;3.90;;;2.20;99.90;;;;;;5094503;28;20208;-42
2022/03/05 08:52:13;;;;;;;3.87;3.13;;;2.30;99.90;;;;;;5088824;28;20678;-45
2022/03/05 08:54:41;;;;;;;8.37;4.13;;;2.40;99.90;;;;;;5097337;28;20191;-44
2022/03/05 08:57:11;;;;;;;4.63;3.70;;;2.50;99.90;;;;;;5096412;28;20216;-42
2022/03/05 08:59:38;;;;;;;7.23;4.53;;;2.50;99.90;;;;;;5099646;28;20193;-45
2022/03/05 09:02:06;;;;;;;8.07;4.00;;;2.60;99.90;;;;;;5102886;28;20247;-45
2022/03/05 09:04:33;;;;;;;4.70;3.43;;;2.70;99.90;;;;;;5094012;28;20230;-41
2022/03/05 09:07:00;;;;;;;5.83;4.13;;;2.80;99.90;;;;;;5090226;28;20680;-42
2022/03/05 09:09:27;;;;;;;7.60;3.70;;;2.90;99.90;;;;;;5097680;28;20196;-43
2022/03/05 09:11:56;;;;;;;6.57;4.30;;;3.00;99.90;;;;;;5098257;28;20661;-41
2022/03/05 09:14:23;;;;;;;9.37;4.30;;;3.00;99.90;;;;;;5100132;28;20199;-42
2022/03/05 09:16:50;;;;;;;6.20;4.27;;;3.10;99.90;;;;;;5106727;28;20220;-43
2022/03/05 09:19:17;;;;;;;10.20;4.17;;;3.20;99.90;;;;;;5105057;27;20193;-48
2022/03/05 09:21:46;;;;;;;6.30;4.20;;;3.30;99.90;;;;;;5101304;28;20227;-42
2022/03/05 09:24:13;;;;;;;6.77;3.90;;;3.30;99.90;;;;;;5092448;28;20208;-41
2022/03/05 09:26:39;;;;;;;9.93;4.60;;;3.40;99.90;;;;;;5104701;28;20901;-42
2022/03/05 09:29:08;;;;;;;7.90;4.83;;;3.50;99.90;;;;;;5100734;28;20204;-43
2022/03/05 09:31:34;;;;;;;6.23;4.17;;;3.70;99.90;;;;;;5103558;28;20223;-42
2022/03/05 09:34:01;;;;;;;7.47;4.37;;;4.00;99.90;;;;;;5107026;28;20196;-45
2022/03/05 09:36:28;;;;;;;10.07;4.07;;;4.00;99.90;;;;;;5097355;28;20225;-42
2022/03/05 09:38:55;;;;;;;8.37;4.07;;;4.10;99.90;;;;;;5093158;28;20223;-42
2022/03/05 09:41:23;;;;;;;10.30;4.47;;;4.10;99.90;;;;;;5103367;28;20212;-42
2022/03/05 09:43:51;;;;;;;6.57;4.20;;;4.10;99.90;;;;;;5101873;28;20212;-46
2022/03/05 09:46:22;;;;;;;7.30;4.43;;;4.20;99.90;;;;;;5104100;28;20198;-42
2022/03/05 09:48:53;;;;;;;6.83;4.07;;;4.20;99.90;;;;;;5106990;28;20696;-41
2022/03/05 09:51:22;;;;;;;9.10;4.70;;;4.20;99.90;;;;;;5099202;28;20224;-42
2022/03/05 09:53:52;;;;;;;9.50;4.43;;;4.30;99.90;;;;;;5092876;28;20220;-41
2022/03/05 09:56:19;;;;;;;5.63;3.83;;;4.30;99.90;;;;;;5101557;28;20213;-43
2022/03/05 09:58:47;;;;;;;7.30;4.73;;;4.30;99.90;;;;;;5096515;28;20728;-41
2022/03/05 10:01:14;;;;;;;8.37;4.60;;;4.40;99.90;;;;;;5104544;28;20224;-43
2022/03/05 10:03:46;;;;;;;4.47;3.90;;;4.40;99.90;;;;;;5104832;28;20200;-45
2022/03/05 10:06:17;;;;;;;5.77;3.63;;;4.50;99.90;;;;;;5102470;28;20197;-43
2022/03/05 10:08:45;;;;;;;7.37;4.17;;;4.60;99.90;;;;;;5089557;28;20213;-42
2022/03/05 10:11:12;;;;;;;6.23;4.10;;;4.60;99.90;;;;;;5103360;28;20221;-42
2022/03/05 10:13:41;;;;;;;6.47;4.17;;;4.70;99.90;;;;;;5104240;28;20311;-43
2022/03/05 10:16:24;;;;;;;7.13;3.80;;;4.80;99.90;;;;;;5098790;28;20205;-42
2022/03/05 10:18:53;;;;;;;5.87;3.67;;;5.00;99.90;;;;;;5102958;28;20209;-42
2022/03/05 10:21:28;;;;;;;6.87;3.70;;;5.10;99.90;;;;;;5097683;28;20254;-46
2022/03/05 10:24:05;;;;;;;6.27;3.67;;;5.00;99.90;;;;;;5106414;27;20196;-43
2022/03/05 10:26:51;;;;;;;7.10;3.97;;;4.90;99.90;;;;;;5086719;28;20197;-43
2022/03/05 10:29:22;;;;;;;9.13;4.40;;;4.90;99.90;;;;;;5100535;28;20710;-42
2022/03/05 10:31:57;;;;;;;6.60;3.90;;;4.80;99.90;;;;;;5105616;28;20213;-44
2022/03/05 10:34:25;;;;;;;7.83;4.40;;;4.80;99.90;;;;;;5102386;28;20218;-44
2022/03/05 10:36:59;;;;;;;6.40;4.30;;;4.90;99.90;;;;;;5104201;28;20213;-42
2022/03/05 10:39:26;;;;;;;5.20;4.00;;;5.00;99.90;;;;;;5095453;28;20911;-44
2022/03/05 10:41:55;;;;;;;6.13;4.23;;;5.20;99.90;;;;;;5092858;28;20682;-45
2022/03/05 10:44:23;;;;;;;7.57;4.83;;;5.10;99.90;;;;;;5102451;28;20193;-43
2022/03/05 10:46:55;;;;;;;7.57;5.17;;;5.10;99.90;;;;;;5095385;28;20197;-43
2022/03/05 10:49:24;;;;;;;5.90;4.10;;;5.10;99.90;;;;;;5101880;28;20193;-42
2022/03/05 10:51:53;;;;;;;6.83;4.90;;;5.10;99.90;;;;;;5105403;28;20228;-42
2022/03/05 10:54:27;;;;;;;8.97;4.43;;;5.20;99.90;;;;;;5089057;28;20205;-42
2022/03/05 10:56:56;;;;;;;4.73;3.90;;;5.30;99.90;;;;;;5093013;28;20291;-43
2022/03/05 10:59:23;;;;;;;8.73;4.77;;;5.30;99.90;;;;;;5100407;28;20204;-45
2022/03/05 11:01:50;;;;;;;4.93;4.43;;;5.30;99.90;;;;;;5100129;28;20228;-47
2022/03/05 11:04:18;;;;;;;6.30;5.03;;;5.30;99.90;;;;;;5102013;28;20221;-44
2022/03/05 11:06:46;;;;;;;7.63;5.10;;;5.10;99.90;;;;;;5102506;28;20924;-42
2022/03/05 11:09:14;;;;;;;9.17;4.33;;;5.20;99.90;;;;;;5098406;28;20193;-44
2022/03/05 11:11:42;;;;;;;8.43;4.70;;;5.30;99.90;;;;;;5083512;28;20549;-42
2022/03/05 11:14:13;;;;;;;5.50;5.00;;;5.30;99.90;;;;;;5104516;28;20193;-45
2022/03/05 11:16:41;;;;;;;5.67;4.47;;;5.30;99.90;;;;;;5095093;28;20828;-43
2022/03/05 11:19:08;;;;;;;5.10;4.60;;;5.30;99.90;;;;;;5095787;28;20213;-43
2022/03/05 11:21:35;;;;;;;6.67;4.10;;;5.20;99.90;;;;;;5096060;28;20589;-44
2022/03/05 11:24:06;;;;;;;5.20;4.50;;;5.20;99.90;;;;;;5100983;28;20185;-42
2022/03/05 11:26:37;;;;;;;6.93;5.00;;;5.20;99.90;;;;;;5092338;27;20320;-43
2022/03/05 11:29:04;;;;;;;8.63;4.20;;;5.20;99.90;;;;;;5093646;28;20258;-44
2022/03/05 11:31:32;;;;;;;8.50;4.30;;;5.20;99.90;;;;;;5103753;28;20209;-47
2022/03/05 11:34:12;;;;;;;5.50;4.20;;;5.20;99.90;;;;;;5098713;28;20197;-45
2022/03/05 11:36:41;;;;;;;5.03;4.10;;;5.30;99.90;;;;;;5103652;27;20212;-42
2022/03/05 11:39:15;;;;;;;10.23;5.17;;;5.30;99.90;;;;;;5106252;27;20209;-44
2022/03/05 11:41:54;;;;;;;4.40;4.00;;;5.30;99.90;;;;;;5097271;27;20223;-44
2022/03/05 11:44:24;;;;;;;7.20;4.60;;;5.30;99.90;;;;;;5101422;28;20228;-45
2022/03/05 11:47:30;;;;;;;9.00;4.90;;;5.40;99.90;;;;;;5099409;27;20178;-42
2022/03/05 11:50:09;;;;;;;6.63;4.17;;;5.50;99.90;;;;;;5075379;27;20201;-42
2022/03/05 11:53:05;;;;;;;5.53;3.67;;;5.50;99.90;;;;;;5092800;28;20217;-44
2022/03/05 11:55:38;;;;;;;4.13;3.73;;;5.60;99.90;;;;;;5096006;27;20281;-45
2022/03/05 11:58:30;;;;;;;4.73;4.30;;;5.60;99.90;;;;;;5094075;27;20298;-43
2022/03/05 12:00:58;;;;;;;4.93;4.10;;;5.60;99.90;;;;;;5081939;28;20229;-44
2022/03/05 12:03:39;;;;;;;4.30;4.00;;;5.60;99.90;;;;;;5091630;28;20193;-47
2022/03/05 12:06:07;;;;;;;4.43;4.00;;;5.60;99.90;;;;;;5092609;27;20212;-45
2022/03/05 12:08:42;;;;;;;5.47;4.20;;;5.60;99.90;;;;;;5095831;27;20209;-49
2022/03/05 12:11:12;;;;;;;5.87;4.27;;;5.60;99.90;;;;;;5099781;27;20221;-43
2022/03/05 12:13:43;;;;;;;5.13;4.00;;;5.60;99.90;;;;;;5085536;27;20197;-48
2022/03/05 12:16:15;;;;;;;5.67;3.90;;;5.60;99.90;;;;;;5095180;27;20197;-45
2022/03/05 12:18:42;;;;;;;5.00;3.87;;;5.60;99.90;;;;;;5088847;27;20332;-46
2022/03/05 12:21:09;;;;;;;4.30;3.90;;;5.60;99.90;;;;;;5097435;28;20221;-47
2022/03/05 12:23:36;;;;;;;3.87;3.57;;;5.60;99.90;;;;;;5091444;28;20197;-44
2022/03/05 12:26:05;;;;;;;5.70;4.50;;;5.70;99.90;;;;;;5087340;28;20209;-45
2022/03/05 12:28:41;;;;;;;7.80;4.60;;;5.80;99.90;;;;;;5086162;28;20202;-50
2022/03/05 12:31:19;;;;;;;5.93;4.47;;;5.90;99.90;;;;;;5101681;28;20221;-48
2022/03/05 12:33:47;;;;;;;7.07;3.90;;;5.90;99.90;;;;;;5102386;28;20207;-45
2022/03/05 12:36:16;;;;;;;4.40;4.00;;;5.90;99.90;;;;;;5089690;28;20205;-45
2022/03/05 12:38:43;;;;;;;4.17;3.87;;;5.90;99.90;;;;;;5100086;27;20684;-44
2022/03/05 12:41:10;;;;;;;5.27;3.70;;;6.00;99.90;;;;;;5100676;27;20273;-49
2022/03/05 12:43:42;;;;;;;4.60;4.20;;;6.10;99.90;;;;;;5095682;28;20550;-46
2022/03/05 12:46:09;;;;;;;4.00;3.60;;;6.10;99.90;;;;;;5087170;28;20208;-49
2022/03/05 12:48:36;;;;;;;7.13;3.83;;;6.10;99.90;;;;;;5089737;27;20380;-44
2022/03/05 12:51:04;;;;;;;5.63;3.70;;;6.20;99.90;;;;;;5099535;27;20216;-45
2022/03/05 12:53:34;;;;;;;7.07;3.87;;;6.10;99.90;;;;;;5098703;28;20319;-45
2022/03/05 12:56:04;;;;;;;5.30;3.70;;;6.20;99.90;;;;;;5091585;28;20686;-43
2022/03/05 12:58:33;;;;;;;8.17;4.10;;;6.30;99.90;;;;;;5089248;27;21006;-46